sensor_id;sensor_type;location;lat;lon;timestamp;P1;durP1;ratioP1;P2;durP2;ratioP2
49241;SDS011;35079;52.704;13.814;2023-05-10T00:01:22;7.82;;;4.60;;
49241;SDS011;35079;52.704;13.814;2023-05-10T00:03:48;6.68;;;4.55;;
49241;SDS011;35079;52.704;13.814;2023-05-10T00:06:13;5.70;;;4.45;;
49241;SDS011;35079;52.704;13.814;2023-05-10T00:08:39;6.20;;;4.22;;
49241;SDS011;35079;52.704;13.814;2023-05-10T00:11:05;5.80;;;4.90;;
49241;SDS011;35079;52.704;13.814;2023-05-10T00:13:30;5.88;;;4.40;;
49241;SDS011;35079;52.704;13.814;2023-05-10T00:15:56;8.77;;;4.55;;
49241;SDS011;35079;52.704;13.814;2023-05-10T00:18:22;8.00;;;5.03;;
49241;SDS011;35079;52.704;13.814;2023-05-10T00:20:48;7.38;;;4.40;;
49241;SDS011;35079;52.704;13.814;2023-05-10T00:23:13;8.68;;;5.30;;
49241;SDS011;35079;52.704;13.814;2023-05-10T00:25:39;5.50;;;4.40;;
49241;SDS011;35079;52.704;13.814;2023-05-10T00:28:05;7.85;;;5.10;;
49241;SDS011;35079;52.704;13.814;2023-05-10T00:30:30;7.13;;;4.80;;
49241;SDS011;35079;52.704;13.814;2023-05-10T00:32:56;10.95;;;5.25;;
49241;SDS011;35079;52.704;13.814;2023-05-10T00:35:21;7.35;;;4.93;;
49241;SDS011;35079;52.704;13.814;2023-05-10T00:37:47;9.02;;;5.22;;
49241;SDS011;35079;52.704;13.814;2023-05-10T00:40:13;9.77;;;5.30;;
49241;SDS011;35079;52.704;13.814;2023-05-10T00:42:39;8.90;;;5.10;;
49241;SDS011;35079;52.704;13.814;2023-05-10T00:45:05;6.72;;;4.85;;
49241;SDS011;35079;52.704;13.814;2023-05-10T00:47:31;10.32;;;5.32;;
49241;SDS011;35079;52.704;13.814;2023-05-10T00:49:57;8.98;;;5.38;;
49241;SDS011;35079;52.704;13.814;2023-05-10T00:52:25;8.65;;;5.10;;
49241;SDS011;35079;52.704;13.814;2023-05-10T00:54:52;5.60;;;4.35;;
49241;SDS011;35079;52.704;13.814;2023-05-10T00:57:17;8.48;;;5.40;;
49241;SDS011;35079;52.704;13.814;2023-05-10T00:59:44;8.00;;;5.03;;
49241;SDS011;35079;52.704;13.814;2023-05-10T01:02:10;9.50;;;5.32;;
49241;SDS011;35079;52.704;13.814;2023-05-10T01:04:36;11.15;;;5.30;;
49241;SDS011;35079;52.704;13.814;2023-05-10T01:07:03;8.95;;;4.72;;
49241;SDS011;35079;52.704;13.814;2023-05-10T01:09:28;7.47;;;4.82;;
49241;SDS011;35079;52.704;13.814;2023-05-10T01:11:54;7.32;;;4.60;;
49241;SDS011;35079;52.704;13.814;2023-05-10T01:14:21;8.30;;;5.05;;
49241;SDS011;35079;52.704;13.814;2023-05-10T01:16:47;6.68;;;4.90;;
49241;SDS011;35079;52.704;13.814;2023-05-10T01:19:18;8.23;;;4.75;;
49241;SDS011;35079;52.704;13.814;2023-05-10T01:27:53;7.47;;;4.75;;
49241;SDS011;35079;52.704;13.814;2023-05-10T01:35:40;11.32;;;4.78;;
49241;SDS011;35079;52.704;13.814;2023-05-10T01:38:27;14.95;;;5.28;;
49241;SDS011;35079;52.704;13.814;2023-05-10T01:41:07;12.77;;;5.22;;
49241;SDS011;35079;52.704;13.814;2023-05-10T01:43:55;5.70;;;4.47;;
49241;SDS011;35079;52.704;13.814;2023-05-10T01:46:33;8.27;;;4.93;;
49241;SDS011;35079;52.704;13.814;2023-05-10T01:49:02;11.90;;;4.80;;
49241;SDS011;35079;52.704;13.814;2023-05-10T01:51:44;7.53;;;5.20;;
49241;SDS011;35079;52.704;13.814;2023-05-10T01:54:11;6.88;;;4.75;;
49241;SDS011;35079;52.704;13.814;2023-05-10T01:56:40;6.88;;;4.65;;
49241;SDS011;35079;52.704;13.814;2023-05-10T01:59:09;7.50;;;4.50;;
49241;SDS011;35079;52.704;13.814;2023-05-10T02:01:39;9.73;;;4.70;;
49241;SDS011;35079;52.704;13.814;2023-05-10T02:04:06;8.25;;;4.47;;
49241;SDS011;35079;52.704;13.814;2023-05-10T02:06:33;9.88;;;5.00;;
49241;SDS011;35079;52.704;13.814;2023-05-10T02:09:00;9.55;;;4.95;;
49241;SDS011;35079;52.704;13.814;2023-05-10T02:11:26;8.55;;;5.00;;
49241;SDS011;35079;52.704;13.814;2023-05-10T02:13:53;8.88;;;4.72;;
49241;SDS011;35079;52.704;13.814;2023-05-10T02:16:20;6.68;;;4.28;;
49241;SDS011;35079;52.704;13.814;2023-05-10T02:18:50;6.97;;;4.70;;
49241;SDS011;35079;52.704;13.814;2023-05-10T02:21:18;8.25;;;4.88;;
49241;SDS011;35079;52.704;13.814;2023-05-10T02:23:45;9.63;;;4.85;;
49241;SDS011;35079;52.704;13.814;2023-05-10T02:26:13;7.97;;;4.47;;
49241;SDS011;35079;52.704;13.814;2023-05-10T02:28:41;9.50;;;4.97;;
49241;SDS011;35079;52.704;13.814;2023-05-10T02:31:08;11.07;;;4.68;;
49241;SDS011;35079;52.704;13.814;2023-05-10T02:33:35;7.95;;;4.45;;
49241;SDS011;35079;52.704;13.814;2023-05-10T02:36:08;6.28;;;4.40;;
49241;SDS011;35079;52.704;13.814;2023-05-10T02:38:35;8.90;;;4.93;;
49241;SDS011;35079;52.704;13.814;2023-05-10T02:41:01;6.22;;;4.57;;
49241;SDS011;35079;52.704;13.814;2023-05-10T02:43:29;7.45;;;4.38;;
49241;SDS011;35079;52.704;13.814;2023-05-10T02:45:57;5.88;;;4.47;;
49241;SDS011;35079;52.704;13.814;2023-05-10T02:48:23;10.05;;;4.72;;
49241;SDS011;35079;52.704;13.814;2023-05-10T02:50:48;9.85;;;5.00;;
49241;SDS011;35079;52.704;13.814;2023-05-10T02:53:24;8.40;;;4.75;;
49241;SDS011;35079;52.704;13.814;2023-05-10T02:56:00;7.65;;;4.30;;
49241;SDS011;35079;52.704;13.814;2023-05-10T02:58:32;10.52;;;4.70;;
49241;SDS011;35079;52.704;13.814;2023-05-10T03:00:58;7.90;;;4.88;;
49241;SDS011;35079;52.704;13.814;2023-05-10T03:03:24;8.70;;;4.95;;
49241;SDS011;35079;52.704;13.814;2023-05-10T03:05:50;6.95;;;4.65;;
49241;SDS011;35079;52.704;13.814;2023-05-10T03:08:15;10.57;;;4.90;;
49241;SDS011;35079;52.704;13.814;2023-05-10T03:10:46;9.25;;;4.78;;
49241;SDS011;35079;52.704;13.814;2023-05-10T03:14:11;7.00;;;4.88;;
49241;SDS011;35079;52.704;13.814;2023-05-10T03:16:24;6.63;;;4.75;;
49241;SDS011;35079;52.704;13.814;2023-05-10T03:19:08;7.28;;;4.45;;
49241;SDS011;35079;52.704;13.814;2023-05-10T03:21:41;8.90;;;4.75;;
49241;SDS011;35079;52.704;13.814;2023-05-10T03:24:12;6.63;;;4.28;;
49241;SDS011;35079;52.704;13.814;2023-05-10T03:26:40;7.85;;;4.53;;
49241;SDS011;35079;52.704;13.814;2023-05-10T03:29:10;8.05;;;4.95;;
49241;SDS011;35079;52.704;13.814;2023-05-10T03:31:38;6.38;;;4.40;;
49241;SDS011;35079;52.704;13.814;2023-05-10T03:34:03;8.60;;;4.60;;
49241;SDS011;35079;52.704;13.814;2023-05-10T03:36:29;6.18;;;4.60;;
49241;SDS011;35079;52.704;13.814;2023-05-10T03:38:54;6.18;;;4.25;;
49241;SDS011;35079;52.704;13.814;2023-05-10T03:41:20;6.97;;;4.63;;
49241;SDS011;35079;52.704;13.814;2023-05-10T03:43:46;7.97;;;4.70;;
49241;SDS011;35079;52.704;13.814;2023-05-10T03:46:11;6.85;;;4.88;;
49241;SDS011;35079;52.704;13.814;2023-05-10T03:48:37;6.32;;;4.60;;
49241;SDS011;35079;52.704;13.814;2023-05-10T03:51:03;8.07;;;4.50;;
49241;SDS011;35079;52.704;13.814;2023-05-10T03:53:29;6.90;;;4.50;;
49241;SDS011;35079;52.704;13.814;2023-05-10T03:55:55;6.32;;;4.00;;
49241;SDS011;35079;52.704;13.814;2023-05-10T03:58:20;5.43;;;4.47;;
49241;SDS011;35079;52.704;13.814;2023-05-10T04:00:46;6.65;;;4.28;;
49241;SDS011;35079;52.704;13.814;2023-05-10T04:03:12;10.07;;;4.78;;
49241;SDS011;35079;52.704;13.814;2023-05-10T04:05:38;4.93;;;4.10;;
49241;SDS011;35079;52.704;13.814;2023-05-10T04:08:04;6.78;;;4.60;;
49241;SDS011;35079;52.704;13.814;2023-05-10T04:10:30;6.68;;;4.43;;
49241;SDS011;35079;52.704;13.814;2023-05-10T04:12:56;11.20;;;4.90;;
49241;SDS011;35079;52.704;13.814;2023-05-10T04:15:21;8.32;;;4.40;;
49241;SDS011;35079;52.704;13.814;2023-05-10T04:17:47;8.10;;;4.50;;
49241;SDS011;35079;52.704;13.814;2023-05-10T04:20:13;6.95;;;4.28;;
49241;SDS011;35079;52.704;13.814;2023-05-10T04:22:39;6.25;;;4.05;;
49241;SDS011;35079;52.704;13.814;2023-05-10T04:25:05;5.22;;;4.10;;
49241;SDS011;35079;52.704;13.814;2023-05-10T04:27:31;7.25;;;4.72;;
49241;SDS011;35079;52.704;13.814;2023-05-10T04:29:57;7.75;;;4.60;;
49241;SDS011;35079;52.704;13.814;2023-05-10T04:32:23;7.53;;;4.20;;
49241;SDS011;35079;52.704;13.814;2023-05-10T04:34:49;7.95;;;4.05;;
49241;SDS011;35079;52.704;13.814;2023-05-10T04:37:16;9.45;;;4.32;;
49241;SDS011;35079;52.704;13.814;2023-05-10T04:39:42;6.32;;;4.13;;
49241;SDS011;35079;52.704;13.814;2023-05-10T04:42:11;7.60;;;4.55;;
49241;SDS011;35079;52.704;13.814;2023-05-10T04:44:36;12.43;;;4.32;;
49241;SDS011;35079;52.704;13.814;2023-05-10T04:47:02;10.95;;;4.25;;
49241;SDS011;35079;52.704;13.814;2023-05-10T04:49:28;7.43;;;4.65;;
49241;SDS011;35079;52.704;13.814;2023-05-10T04:51:54;8.95;;;4.60;;
49241;SDS011;35079;52.704;13.814;2023-05-10T04:54:20;5.30;;;3.85;;
49241;SDS011;35079;52.704;13.814;2023-05-10T04:56:46;6.57;;;4.25;;
49241;SDS011;35079;52.704;13.814;2023-05-10T04:59:11;8.02;;;4.85;;
49241;SDS011;35079;52.704;13.814;2023-05-10T05:01:37;8.75;;;4.65;;
49241;SDS011;35079;52.704;13.814;2023-05-10T05:04:03;9.57;;;4.30;;
49241;SDS011;35079;52.704;13.814;2023-05-10T05:06:29;12.45;;;4.38;;
49241;SDS011;35079;52.704;13.814;2023-05-10T05:08:54;8.25;;;4.47;;
49241;SDS011;35079;52.704;13.814;2023-05-10T05:11:20;6.65;;;4.50;;
49241;SDS011;35079;52.704;13.814;2023-05-10T05:13:46;5.20;;;4.15;;
49241;SDS011;35079;52.704;13.814;2023-05-10T05:16:11;7.78;;;4.25;;
49241;SDS011;35079;52.704;13.814;2023-05-10T05:18:37;6.80;;;4.22;;
49241;SDS011;35079;52.704;13.814;2023-05-10T05:21:03;4.82;;;4.32;;
49241;SDS011;35079;52.704;13.814;2023-05-10T05:23:37;7.90;;;4.18;;
49241;SDS011;35079;52.704;13.814;2023-05-10T05:26:03;5.93;;;3.90;;
49241;SDS011;35079;52.704;13.814;2023-05-10T05:28:29;9.70;;;4.18;;
49241;SDS011;35079;52.704;13.814;2023-05-10T05:30:57;5.22;;;4.00;;
49241;SDS011;35079;52.704;13.814;2023-05-10T05:33:23;5.82;;;4.07;;
49241;SDS011;35079;52.704;13.814;2023-05-10T05:35:48;5.80;;;3.53;;
49241;SDS011;35079;52.704;13.814;2023-05-10T05:38:15;7.90;;;4.00;;
49241;SDS011;35079;52.704;13.814;2023-05-10T05:40:42;6.60;;;3.72;;
49241;SDS011;35079;52.704;13.814;2023-05-10T05:43:07;6.38;;;3.85;;
49241;SDS011;35079;52.704;13.814;2023-05-10T05:45:33;5.28;;;3.97;;
49241;SDS011;35079;52.704;13.814;2023-05-10T05:47:59;7.10;;;3.42;;
49241;SDS011;35079;52.704;13.814;2023-05-10T05:50:24;6.75;;;4.00;;
49241;SDS011;35079;52.704;13.814;2023-05-10T05:52:50;5.78;;;3.50;;
49241;SDS011;35079;52.704;13.814;2023-05-10T05:55:16;5.35;;;3.58;;
49241;SDS011;35079;52.704;13.814;2023-05-10T05:57:42;6.63;;;3.75;;
49241;SDS011;35079;52.704;13.814;2023-05-10T06:00:07;8.85;;;4.00;;
49241;SDS011;35079;52.704;13.814;2023-05-10T06:02:33;9.18;;;3.78;;
49241;SDS011;35079;52.704;13.814;2023-05-10T06:04:59;5.18;;;3.53;;
49241;SDS011;35079;52.704;13.814;2023-05-10T06:07:24;4.63;;;3.22;;
49241;SDS011;35079;52.704;13.814;2023-05-10T06:09:50;6.60;;;3.72;;
49241;SDS011;35079;52.704;13.814;2023-05-10T06:12:16;7.07;;;3.60;;
49241;SDS011;35079;52.704;13.814;2023-05-10T06:14:41;10.30;;;3.80;;
49241;SDS011;35079;52.704;13.814;2023-05-10T06:17:07;4.43;;;3.50;;
49241;SDS011;35079;52.704;13.814;2023-05-10T06:19:33;5.05;;;3.20;;
49241;SDS011;35079;52.704;13.814;2023-05-10T06:21:58;5.07;;;3.65;;
49241;SDS011;35079;52.704;13.814;2023-05-10T06:24:24;4.82;;;3.13;;
49241;SDS011;35079;52.704;13.814;2023-05-10T06:26:49;4.63;;;3.03;;
49241;SDS011;35079;52.704;13.814;2023-05-10T06:29:15;4.95;;;3.20;;
49241;SDS011;35079;52.704;13.814;2023-05-10T06:31:41;4.32;;;2.92;;
49241;SDS011;35079;52.704;13.814;2023-05-10T06:34:06;8.80;;;3.13;;
49241;SDS011;35079;52.704;13.814;2023-05-10T06:36:33;4.15;;;3.03;;
49241;SDS011;35079;52.704;13.814;2023-05-10T06:38:59;9.95;;;3.58;;
49241;SDS011;35079;52.704;13.814;2023-05-10T06:41:24;4.45;;;3.03;;
49241;SDS011;35079;52.704;13.814;2023-05-10T06:43:50;4.70;;;2.78;;
49241;SDS011;35079;52.704;13.814;2023-05-10T06:46:15;5.18;;;3.20;;
49241;SDS011;35079;52.704;13.814;2023-05-10T06:48:41;3.88;;;2.90;;
49241;SDS011;35079;52.704;13.814;2023-05-10T06:51:07;3.78;;;3.13;;
49241;SDS011;35079;52.704;13.814;2023-05-10T06:53:32;5.68;;;3.13;;
49241;SDS011;35079;52.704;13.814;2023-05-10T06:55:58;5.05;;;2.63;;
49241;SDS011;35079;52.704;13.814;2023-05-10T06:58:23;6.03;;;2.70;;
49241;SDS011;35079;52.704;13.814;2023-05-10T07:00:49;4.60;;;2.80;;
49241;SDS011;35079;52.704;13.814;2023-05-10T07:03:17;4.65;;;2.85;;
49241;SDS011;35079;52.704;13.814;2023-05-10T07:05:43;3.78;;;2.97;;
49241;SDS011;35079;52.704;13.814;2023-05-10T07:08:08;3.55;;;2.55;;
49241;SDS011;35079;52.704;13.814;2023-05-10T07:10:34;4.95;;;2.80;;
49241;SDS011;35079;52.704;13.814;2023-05-10T07:12:59;5.75;;;2.60;;
49241;SDS011;35079;52.704;13.814;2023-05-10T07:15:26;5.82;;;2.75;;
49241;SDS011;35079;52.704;13.814;2023-05-10T07:17:51;5.10;;;2.90;;
49241;SDS011;35079;52.704;13.814;2023-05-10T07:20:17;4.47;;;2.40;;
49241;SDS011;35079;52.704;13.814;2023-05-10T07:22:43;3.80;;;2.80;;
49241;SDS011;35079;52.704;13.814;2023-05-10T07:25:08;4.32;;;2.65;;
49241;SDS011;35079;52.704;13.814;2023-05-10T07:27:34;4.68;;;2.50;;
49241;SDS011;35079;52.704;13.814;2023-05-10T07:30:00;6.95;;;2.60;;
49241;SDS011;35079;52.704;13.814;2023-05-10T07:32:26;5.93;;;2.55;;
49241;SDS011;35079;52.704;13.814;2023-05-10T07:34:52;5.45;;;3.03;;
49241;SDS011;35079;52.704;13.814;2023-05-10T07:37:17;6.07;;;2.78;;
49241;SDS011;35079;52.704;13.814;2023-05-10T07:39:43;3.65;;;2.50;;
49241;SDS011;35079;52.704;13.814;2023-05-10T07:42:09;4.68;;;2.75;;
49241;SDS011;35079;52.704;13.814;2023-05-10T07:44:34;3.65;;;2.50;;
49241;SDS011;35079;52.704;13.814;2023-05-10T07:47:00;4.05;;;2.92;;
49241;SDS011;35079;52.704;13.814;2023-05-10T07:49:25;7.25;;;3.35;;
49241;SDS011;35079;52.704;13.814;2023-05-10T07:51:51;4.30;;;2.47;;
49241;SDS011;35079;52.704;13.814;2023-05-10T07:54:16;3.88;;;2.60;;
49241;SDS011;35079;52.704;13.814;2023-05-10T07:56:42;3.67;;;2.45;;
49241;SDS011;35079;52.704;13.814;2023-05-10T07:59:15;6.00;;;2.80;;
49241;SDS011;35079;52.704;13.814;2023-05-10T08:01:42;4.40;;;2.70;;
49241;SDS011;35079;52.704;13.814;2023-05-10T08:04:08;6.05;;;2.55;;
49241;SDS011;35079;52.704;13.814;2023-05-10T08:06:33;2.90;;;2.40;;
49241;SDS011;35079;52.704;13.814;2023-05-10T08:08:59;5.38;;;2.58;;
49241;SDS011;35079;52.704;13.814;2023-05-10T08:11:25;4.53;;;2.50;;
49241;SDS011;35079;52.704;13.814;2023-05-10T08:13:52;4.05;;;2.28;;
49241;SDS011;35079;52.704;13.814;2023-05-10T08:16:18;3.80;;;2.40;;
49241;SDS011;35079;52.704;13.814;2023-05-10T08:18:45;3.38;;;2.40;;
49241;SDS011;35079;52.704;13.814;2023-05-10T08:21:11;3.35;;;2.58;;
49241;SDS011;35079;52.704;13.814;2023-05-10T08:23:37;4.38;;;2.67;;
49241;SDS011;35079;52.704;13.814;2023-05-10T08:26:03;4.95;;;2.50;;
49241;SDS011;35079;52.704;13.814;2023-05-10T08:28:29;8.35;;;2.67;;
49241;SDS011;35079;52.704;13.814;2023-05-10T08:30:55;5.97;;;2.35;;
49241;SDS011;35079;52.704;13.814;2023-05-10T08:33:21;4.43;;;2.47;;
49241;SDS011;35079;52.704;13.814;2023-05-10T08:35:46;3.80;;;2.58;;
49241;SDS011;35079;52.704;13.814;2023-05-10T08:38:12;3.85;;;2.85;;
49241;SDS011;35079;52.704;13.814;2023-05-10T08:40:38;4.18;;;3.05;;
49241;SDS011;35079;52.704;13.814;2023-05-10T08:43:07;2.88;;;2.47;;
49241;SDS011;35079;52.704;13.814;2023-05-10T08:45:38;6.63;;;2.78;;
49241;SDS011;35079;52.704;13.814;2023-05-10T08:48:06;5.78;;;2.72;;
49241;SDS011;35079;52.704;13.814;2023-05-10T08:50:33;5.55;;;2.75;;
49241;SDS011;35079;52.704;13.814;2023-05-10T08:53:03;5.05;;;2.58;;
49241;SDS011;35079;52.704;13.814;2023-05-10T08:55:30;3.00;;;2.70;;
49241;SDS011;35079;52.704;13.814;2023-05-10T08:57:57;3.67;;;2.78;;
49241;SDS011;35079;52.704;13.814;2023-05-10T09:00:24;3.22;;;2.40;;
49241;SDS011;35079;52.704;13.814;2023-05-10T09:02:50;2.83;;;2.38;;
49241;SDS011;35079;52.704;13.814;2023-05-10T09:05:16;4.10;;;2.60;;
49241;SDS011;35079;52.704;13.814;2023-05-10T09:07:42;5.40;;;2.83;;
49241;SDS011;35079;52.704;13.814;2023-05-10T09:10:08;3.28;;;2.45;;
49241;SDS011;35079;52.704;13.814;2023-05-10T09:12:35;4.22;;;2.75;;
49241;SDS011;35079;52.704;13.814;2023-05-10T09:15:01;6.25;;;3.05;;
49241;SDS011;35079;52.704;13.814;2023-05-10T09:17:31;2.90;;;2.55;;
49241;SDS011;35079;52.704;13.814;2023-05-10T09:20:01;3.20;;;2.78;;
49241;SDS011;35079;52.704;13.814;2023-05-10T09:22:29;4.18;;;2.65;;
49241;SDS011;35079;52.704;13.814;2023-05-10T09:27:38;5.75;;;2.60;;
49241;SDS011;35079;52.704;13.814;2023-05-10T09:30:09;5.57;;;2.50;;
49241;SDS011;35079;52.704;13.814;2023-05-10T09:32:45;4.60;;;2.90;;
49241;SDS011;35079;52.704;13.814;2023-05-10T09:37:39;4.75;;;2.67;;
49241;SDS011;35079;52.704;13.814;2023-05-10T09:40:07;7.25;;;2.50;;
49241;SDS011;35079;52.704;13.814;2023-05-10T09:42:35;5.40;;;2.50;;
49241;SDS011;35079;52.704;13.814;2023-05-10T09:45:04;3.10;;;2.40;;
49241;SDS011;35079;52.704;13.814;2023-05-10T09:47:32;2.88;;;2.65;;
49241;SDS011;35079;52.704;13.814;2023-05-10T09:49:59;8.68;;;3.13;;
49241;SDS011;35079;52.704;13.814;2023-05-10T09:55:41;3.25;;;2.38;;
49241;SDS011;35079;52.704;13.814;2023-05-10T09:58:11;4.55;;;2.50;;
49241;SDS011;35079;52.704;13.814;2023-05-10T10:00:38;2.50;;;2.30;;
49241;SDS011;35079;52.704;13.814;2023-05-10T10:03:05;3.33;;;2.88;;
49241;SDS011;35079;52.704;13.814;2023-05-10T10:05:35;4.05;;;2.50;;
49241;SDS011;35079;52.704;13.814;2023-05-10T10:08:04;3.60;;;2.35;;
49241;SDS011;35079;52.704;13.814;2023-05-10T10:10:31;2.33;;;2.03;;
49241;SDS011;35079;52.704;13.814;2023-05-10T10:12:58;5.80;;;2.78;;
49241;SDS011;35079;52.704;13.814;2023-05-10T10:15:24;4.57;;;2.40;;
49241;SDS011;35079;52.704;13.814;2023-05-10T10:17:51;4.35;;;2.63;;
49241;SDS011;35079;52.704;13.814;2023-05-10T10:20:18;6.30;;;2.67;;
49241;SDS011;35079;52.704;13.814;2023-05-10T10:22:46;3.08;;;2.42;;
49241;SDS011;35079;52.704;13.814;2023-05-10T10:25:14;3.38;;;2.42;;
49241;SDS011;35079;52.704;13.814;2023-05-10T10:35:47;4.53;;;2.40;;
49241;SDS011;35079;52.704;13.814;2023-05-10T10:38:13;6.25;;;2.28;;
49241;SDS011;35079;52.704;13.814;2023-05-10T10:40:40;4.10;;;2.30;;
49241;SDS011;35079;52.704;13.814;2023-05-10T10:43:22;4.72;;;2.50;;
49241;SDS011;35079;52.704;13.814;2023-05-10T10:48:40;3.03;;;2.55;;
49241;SDS011;35079;52.704;13.814;2023-05-10T10:51:11;3.42;;;2.53;;
49241;SDS011;35079;52.704;13.814;2023-05-10T10:53:39;5.38;;;2.40;;
49241;SDS011;35079;52.704;13.814;2023-05-10T10:56:09;3.20;;;2.20;;
49241;SDS011;35079;52.704;13.814;2023-05-10T10:58:37;2.30;;;2.10;;
49241;SDS011;35079;52.704;13.814;2023-05-10T11:01:13;3.47;;;2.38;;
49241;SDS011;35079;52.704;13.814;2023-05-10T11:08:59;6.20;;;2.50;;
49241;SDS011;35079;52.704;13.814;2023-05-10T11:11:30;3.50;;;2.15;;
49241;SDS011;35079;52.704;13.814;2023-05-10T11:13:56;9.63;;;2.85;;
49241;SDS011;35079;52.704;13.814;2023-05-10T11:16:28;2.30;;;1.90;;
49241;SDS011;35079;52.704;13.814;2023-05-10T11:19:10;3.70;;;2.10;;
49241;SDS011;35079;52.704;13.814;2023-05-10T11:24:17;3.10;;;2.30;;
49241;SDS011;35079;52.704;13.814;2023-05-10T11:26:44;3.10;;;2.03;;
49241;SDS011;35079;52.704;13.814;2023-05-10T11:29:12;2.95;;;2.03;;
49241;SDS011;35079;52.704;13.814;2023-05-10T11:31:44;3.90;;;2.33;;
49241;SDS011;35079;52.704;13.814;2023-05-10T11:34:11;4.57;;;2.33;;
49241;SDS011;35079;52.704;13.814;2023-05-10T11:36:50;2.38;;;1.88;;
49241;SDS011;35079;52.704;13.814;2023-05-10T11:39:18;2.10;;;1.95;;
49241;SDS011;35079;52.704;13.814;2023-05-10T11:41:46;3.88;;;2.30;;
49241;SDS011;35079;52.704;13.814;2023-05-10T11:44:13;3.03;;;2.10;;
49241;SDS011;35079;52.704;13.814;2023-05-10T11:46:39;3.75;;;2.13;;
49241;SDS011;35079;52.704;13.814;2023-05-10T11:49:05;4.60;;;2.50;;
49241;SDS011;35079;52.704;13.814;2023-05-10T11:51:35;2.97;;;2.10;;
49241;SDS011;35079;52.704;13.814;2023-05-10T11:54:05;2.30;;;2.00;;
49241;SDS011;35079;52.704;13.814;2023-05-10T11:56:33;2.63;;;2.20;;
49241;SDS011;35079;52.704;13.814;2023-05-10T11:58:59;2.65;;;2.40;;
49241;SDS011;35079;52.704;13.814;2023-05-10T12:01:27;2.58;;;1.92;;
49241;SDS011;35079;52.704;13.814;2023-05-10T12:03:53;3.00;;;1.70;;
49241;SDS011;35079;52.704;13.814;2023-05-10T12:06:25;3.30;;;2.03;;
49241;SDS011;35079;52.704;13.814;2023-05-10T12:09:05;4.95;;;2.45;;
49241;SDS011;35079;52.704;13.814;2023-05-10T12:11:35;2.97;;;2.00;;
49241;SDS011;35079;52.704;13.814;2023-05-10T12:14:04;3.05;;;1.95;;
49241;SDS011;35079;52.704;13.814;2023-05-10T12:16:30;2.88;;;1.75;;
49241;SDS011;35079;52.704;13.814;2023-05-10T12:18:56;2.97;;;2.13;;
49241;SDS011;35079;52.704;13.814;2023-05-10T12:21:23;4.05;;;2.00;;
49241;SDS011;35079;52.704;13.814;2023-05-10T12:23:53;4.82;;;2.30;;
49241;SDS011;35079;52.704;13.814;2023-05-10T12:26:23;2.55;;;2.10;;
49241;SDS011;35079;52.704;13.814;2023-05-10T12:28:51;2.25;;;1.88;;
49241;SDS011;35079;52.704;13.814;2023-05-10T12:31:18;2.85;;;2.13;;
49241;SDS011;35079;52.704;13.814;2023-05-10T12:33:44;3.25;;;2.13;;
49241;SDS011;35079;52.704;13.814;2023-05-10T12:36:11;2.97;;;2.00;;
49241;SDS011;35079;52.704;13.814;2023-05-10T12:38:38;6.07;;;2.20;;
49241;SDS011;35079;52.704;13.814;2023-05-10T12:41:09;2.60;;;2.38;;
49241;SDS011;35079;52.704;13.814;2023-05-10T12:43:36;2.38;;;2.17;;
49241;SDS011;35079;52.704;13.814;2023-05-10T12:46:06;3.00;;;2.00;;
49241;SDS011;35079;52.704;13.814;2023-05-10T12:48:33;3.33;;;1.88;;
49241;SDS011;35079;52.704;13.814;2023-05-10T12:50:59;4.85;;;2.05;;
49241;SDS011;35079;52.704;13.814;2023-05-10T12:53:25;2.33;;;2.08;;
49241;SDS011;35079;52.704;13.814;2023-05-10T12:55:51;4.70;;;2.10;;
49241;SDS011;35079;52.704;13.814;2023-05-10T12:58:16;2.55;;;2.33;;
49241;SDS011;35079;52.704;13.814;2023-05-10T13:00:42;2.38;;;2.03;;
49241;SDS011;35079;52.704;13.814;2023-05-10T13:03:08;2.85;;;2.40;;
49241;SDS011;35079;52.704;13.814;2023-05-10T13:05:34;3.97;;;1.95;;
49241;SDS011;35079;52.704;13.814;2023-05-10T13:08:00;2.85;;;2.03;;
49241;SDS011;35079;52.704;13.814;2023-05-10T13:10:27;2.28;;;2.15;;
49241;SDS011;35079;52.704;13.814;2023-05-10T13:12:57;3.13;;;2.20;;
49241;SDS011;35079;52.704;13.814;2023-05-10T13:15:23;2.20;;;2.00;;
49241;SDS011;35079;52.704;13.814;2023-05-10T13:17:49;8.40;;;1.92;;
49241;SDS011;35079;52.704;13.814;2023-05-10T13:20:15;3.65;;;2.22;;
49241;SDS011;35079;52.704;13.814;2023-05-10T13:22:41;4.63;;;2.17;;
49241;SDS011;35079;52.704;13.814;2023-05-10T13:25:07;3.42;;;2.20;;
49241;SDS011;35079;52.704;13.814;2023-05-10T13:27:33;2.60;;;2.22;;
49241;SDS011;35079;52.704;13.814;2023-05-10T13:29:59;2.55;;;2.05;;
49241;SDS011;35079;52.704;13.814;2023-05-10T13:32:25;2.28;;;2.00;;
49241;SDS011;35079;52.704;13.814;2023-05-10T13:34:51;3.90;;;2.25;;
49241;SDS011;35079;52.704;13.814;2023-05-10T13:37:16;2.95;;;2.33;;
49241;SDS011;35079;52.704;13.814;2023-05-10T13:39:42;3.20;;;2.08;;
49241;SDS011;35079;52.704;13.814;2023-05-10T13:42:08;2.38;;;2.17;;
49241;SDS011;35079;52.704;13.814;2023-05-10T13:44:33;5.00;;;2.10;;
49241;SDS011;35079;52.704;13.814;2023-05-10T13:46:59;2.13;;;1.92;;
49241;SDS011;35079;52.704;13.814;2023-05-10T13:49:25;3.67;;;2.25;;
49241;SDS011;35079;52.704;13.814;2023-05-10T13:51:50;4.13;;;2.00;;
49241;SDS011;35079;52.704;13.814;2023-05-10T13:54:17;4.20;;;2.75;;
49241;SDS011;35079;52.704;13.814;2023-05-10T13:56:44;2.30;;;1.98;;
49241;SDS011;35079;52.704;13.814;2023-05-10T13:59:12;6.93;;;2.65;;
49241;SDS011;35079;52.704;13.814;2023-05-10T14:01:38;4.63;;;2.40;;
49241;SDS011;35079;52.704;13.814;2023-05-10T14:04:05;4.72;;;2.20;;
49241;SDS011;35079;52.704;13.814;2023-05-10T14:06:31;3.58;;;2.38;;
49241;SDS011;35079;52.704;13.814;2023-05-10T14:08:56;7.05;;;2.50;;
49241;SDS011;35079;52.704;13.814;2023-05-10T14:11:22;2.58;;;2.10;;
49241;SDS011;35079;52.704;13.814;2023-05-10T14:13:48;7.18;;;2.72;;
49241;SDS011;35079;52.704;13.814;2023-05-10T14:16:14;5.50;;;2.10;;
49241;SDS011;35079;52.704;13.814;2023-05-10T14:18:39;3.85;;;2.03;;
49241;SDS011;35079;52.704;13.814;2023-05-10T14:21:05;3.47;;;3.08;;
49241;SDS011;35079;52.704;13.814;2023-05-10T14:23:31;4.20;;;2.00;;
49241;SDS011;35079;52.704;13.814;2023-05-10T14:25:57;5.03;;;3.08;;
49241;SDS011;35079;52.704;13.814;2023-05-10T14:28:22;3.75;;;3.20;;
49241;SDS011;35079;52.704;13.814;2023-05-10T14:30:49;3.85;;;2.08;;
49241;SDS011;35079;52.704;13.814;2023-05-10T14:33:18;6.38;;;2.35;;
49241;SDS011;35079;52.704;13.814;2023-05-10T14:35:44;4.97;;;2.35;;
49241;SDS011;35079;52.704;13.814;2023-05-10T14:38:11;3.50;;;2.22;;
49241;SDS011;35079;52.704;13.814;2023-05-10T14:40:37;4.35;;;1.92;;
49241;SDS011;35079;52.704;13.814;2023-05-10T14:43:03;2.78;;;2.15;;
49241;SDS011;35079;52.704;13.814;2023-05-10T14:45:28;4.15;;;2.20;;
49241;SDS011;35079;52.704;13.814;2023-05-10T14:47:54;10.40;;;2.13;;
49241;SDS011;35079;52.704;13.814;2023-05-10T14:50:20;4.63;;;2.35;;
49241;SDS011;35079;52.704;13.814;2023-05-10T14:52:45;3.45;;;2.35;;
49241;SDS011;35079;52.704;13.814;2023-05-10T14:55:11;3.05;;;2.33;;
49241;SDS011;35079;52.704;13.814;2023-05-10T14:57:37;3.72;;;2.40;;
49241;SDS011;35079;52.704;13.814;2023-05-10T15:00:03;5.03;;;2.10;;
49241;SDS011;35079;52.704;13.814;2023-05-10T15:02:32;2.97;;;2.45;;
49241;SDS011;35079;52.704;13.814;2023-05-10T15:04:58;3.15;;;2.10;;
49241;SDS011;35079;52.704;13.814;2023-05-10T15:07:24;4.47;;;2.00;;
49241;SDS011;35079;52.704;13.814;2023-05-10T15:09:50;4.40;;;2.20;;
49241;SDS011;35079;52.704;13.814;2023-05-10T15:12:17;8.02;;;2.35;;